WetterOnline ( https://www.wetteronline.de )

Wetter aktuell Leipzig

Aktuelles Wetter: Leipzig-Holzhausen (138m)

6-stündlich | Neueste Meldungen
Ortszeit Temperatur Wetter
Mi, 07.12. 13:00 3.8° C leichter Regen
Mi, 07.12. 7:00 1.8° C Sprühregen
Mi, 07.12. 1:00 2.2° C bewölkt
Di, 06.12. 19:00 1.9° C leichter Regen
Di, 06.12. 13:00 2.1° C Sprühregen
Di, 06.12. 7:00 2.5° C bewölkt
Di, 06.12. 1:00 2.8° C bewölkt
Mo, 05.12. 19:00 2.0° C bewölkt
Ortszeit Temperatur Wetter
Mi, 07.12. 16:30 4.0° C wolkig
Mi, 07.12. 16:20 4.0° C wolkig
Mi, 07.12. 16:10 4.0° C bedeckt
Mi, 07.12. 16:00 4.1° C wolkig
Mi, 07.12. 15:50 4.1° C wolkig
Mi, 07.12. 15:40 4.2° C bedeckt
Mi, 07.12. 15:30 4.4° C wolkig
Mi, 07.12. 15:00 4.7° C wolkig
Mi, 07.12. 14:30 4.6° C bedeckt
Mi, 07.12. 14:00 4.6° C wolkig
Mi, 07.12. 13:30 4.3° C wolkig
Ortszeit Relative Feuchte Sichtweite
Mi, 07.12. 13:00 90% 17 km
Mi, 07.12. 7:00 94% 19 km
Mi, 07.12. 1:00 96% 13 km
Di, 06.12. 19:00 98% 17 km
Di, 06.12. 13:00 95% 9 km
Di, 06.12. 7:00 95% 16 km
Di, 06.12. 1:00 98% 10 km
Mo, 05.12. 19:00 98% 10 km
Ortszeit Relative Feuchte Sichtweite
Mi, 07.12. 16:30 76% 60 km
Mi, 07.12. 16:20 76% -
Mi, 07.12. 16:10 77% -
Mi, 07.12. 16:00 78% 55 km
Mi, 07.12. 15:50 78% -
Mi, 07.12. 15:40 78% -
Mi, 07.12. 15:30 77% 60 km
Mi, 07.12. 15:00 79% 55 km
Mi, 07.12. 14:30 80% 45 km
Mi, 07.12. 14:00 82% 45 km
Mi, 07.12. 13:30 85% 40 km
Ortszeit Niederschlagsmenge Niederschlagsart
Mi, 07.12. 13:00 0.2 l/m2 in 6 Std. Regen
Mi, 07.12. 7:00 0.6 l/m2 in 12 Std. Schnee, Regen
Mi, 07.12. 1:00 0.4 l/m2 in 6 Std. Regen
Di, 06.12. 19:00 0.9 l/m2 in 12 Std. Regen
Di, 06.12. 13:00 0.1 l/m2 in 6 Std. Regen
Di, 06.12. 7:00 0.1 l/m2 in 12 Std. Sprühregen
Di, 06.12. 1:00 0.1 l/m2 in 6 Std. Regen
Mo, 05.12. 19:00 0.7 l/m2 in 12 Std. Sprühregen
Ortszeit Niederschlagsmenge Niederschlagsart
Mi, 07.12. 16:30 0.0 l/m2 in 1 Std. -
Mi, 07.12. 16:20 keine Meldung -
Mi, 07.12. 16:10 keine Meldung -
Mi, 07.12. 16:00 0.0 l/m2 in 1 Std. Regen
Mi, 07.12. 15:50 keine Meldung -
Mi, 07.12. 15:40 keine Meldung -
Mi, 07.12. 15:30 0.0 l/m2 in 1 Std. -
Mi, 07.12. 15:00 0.0 l/m2 in 1 Std. -
Mi, 07.12. 14:30 0.0 l/m2 in 1 Std. -
Mi, 07.12. 14:00 <0.05 l/m2 in 1 Std. Regen
Mi, 07.12. 13:30 <0.05 l/m2 in 1 Std. Schneeregen
Ortszeit Stärke Spitze Richtung
km/h Bft. km/h Grad Sektor
Mi, 07.12. 13:00 11 2 29 290° W
Mi, 07.12. 7:00 11 2 24 250° W
Mi, 07.12. 1:00 7 2 22 250° W
Di, 06.12. 19:00 9 2 24 270° W
Di, 06.12. 13:00 9 2 24 270° W
Di, 06.12. 7:00 7 2 11 250° W
Di, 06.12. 1:00 4 1 14 240° SW
Mo, 05.12. 19:00 7 2 18 200° S
Ortszeit Stärke Spitze Richtung
km/h Bft. km/h Grad Sektor
Mi, 07.12. 16:30 15 3 31 270° W
Mi, 07.12. 16:20 15 3 - 270° W
Mi, 07.12. 16:10 15 3 - 270° W
Mi, 07.12. 16:00 13 3 35 270° W
Mi, 07.12. 15:50 13 3 - 270° W
Mi, 07.12. 15:40 15 3 - 270° W
Mi, 07.12. 15:30 20 4 35 270° W
Mi, 07.12. 15:00 14 3 40 270° W
Mi, 07.12. 14:30 9 2 28 270° W
Mi, 07.12. 14:00 14 3 29 280° W
Mi, 07.12. 13:30 13 3 30 280° W
Ortszeit Untergrenze Bedeckung Gattung
total tief tief mittel hoch
Mi, 07.12. 13:00 360 m 5/8 5/8 - - -
Mi, 07.12. 7:00 270 m 8/8 8/8 - - -
Mi, 07.12. 1:00 180 m 7/8 7/8 - - -
Di, 06.12. 19:00 150 m 8/8 8/8 - - -
Di, 06.12. 13:00 180 m 7/8 7/8 - - -
Di, 06.12. 7:00 210 m 7/8 7/8 - - -
Di, 06.12. 1:00 450 m 7/8 7/8 - - -
Mo, 05.12. 19:00 660 m 7/8 7/8 - - -
Ortszeit Bedeckungsgrad in Achtel und Wolkenuntergrenze
Mi, 07.12. 16:30 2(2400m) 7(3300m) 8(3900m)
Mi, 07.12. 16:20 2(2400m) 7(3300m) 8(3900m)
Mi, 07.12. 16:10 8
Mi, 07.12. 16:00 2(1500m) 8(3600m)
Mi, 07.12. 15:50 2(1500m) 8(3600m)
Mi, 07.12. 15:40 8
Mi, 07.12. 15:30 1(690m) 8(4200m) 8(6300m)
Mi, 07.12. 15:00 2(600m) 5(1200m) 7(3900m)
Mi, 07.12. 14:30 3(630m) 7(840m) 8(1140m)
Mi, 07.12. 14:00 1(630m) 8(3900m) 8(4500m)
Mi, 07.12. 13:30 3(690m) 6(4500m) 6(5700m)
Ortszeit Luftdruck NN (hPa) Tendenz (hPa in 3 Std.)
Mi, 07.12. 13:00 1012 - 0,5
Mi, 07.12. 7:00 1013 - 1,1
Mi, 07.12. 1:00 1015 - 0,5
Di, 06.12. 19:00 1016 + 0,1
Di, 06.12. 13:00 1016 - 0,7
Di, 06.12. 7:00 1017 - 0,9
Di, 06.12. 1:00 1019 - 0,9
Mo, 05.12. 19:00 1019 + 0,7
Ortszeit Luftdruck NN (hPa) Tendenz (hPa in 3 Std.)
Mi, 07.12. 16:30 1012 - 0,5
Mi, 07.12. 16:20 1012 keine Meldung
Mi, 07.12. 16:10 1012 keine Meldung
Mi, 07.12. 16:00 1012 - 0,6
Mi, 07.12. 15:50 1012 keine Meldung
Mi, 07.12. 15:40 1012 keine Meldung
Mi, 07.12. 15:30 1012 - 0,7
Mi, 07.12. 15:00 1012 - 0,9
Mi, 07.12. 14:30 1012 - 0,8
Mi, 07.12. 14:00 1012 - 0,8
Mi, 07.12. 13:30 1012 - 0,8
Ortszeit Schneehöhe (cm)
Mi, 07.12. 13:00 0
Mi, 07.12. 7:00 0
Mi, 07.12. 1:00 0
Di, 06.12. 19:00 0
Di, 06.12. 13:00 0
Di, 06.12. 7:00 0
Di, 06.12. 1:00 0
Mo, 05.12. 19:00 0
Ortszeit Schneehöhe (cm)
Mi, 07.12. 16:30 0
Mi, 07.12. 16:20 0
Mi, 07.12. 16:10 0
Mi, 07.12. 16:00 0
Mi, 07.12. 15:50 0
Mi, 07.12. 15:40 0
Mi, 07.12. 15:30 0
Mi, 07.12. 15:00 0
Mi, 07.12. 14:30 0
Mi, 07.12. 14:00 0
Mi, 07.12. 13:30 0
Link zu dieser Seite / Seite empfehlen

Das Wetter in ...